createdAt,value
2023-01-11T00:00:46.165Z,20.20
2023-01-11T00:03:13.250Z,20.20
2023-01-11T00:05:41.411Z,20.30
2023-01-11T00:08:08.607Z,20.20
2023-01-11T00:10:36.042Z,20.30
2023-01-11T00:13:03.722Z,20.30
2023-01-11T00:15:30.994Z,20.30
2023-01-11T00:17:57.986Z,20.30
2023-01-11T00:20:25.257Z,20.30
2023-01-11T00:22:52.557Z,20.30
2023-01-11T00:25:19.521Z,20.30
2023-01-11T00:27:49.333Z,20.30
2023-01-11T00:30:17.386Z,20.30
2023-01-11T00:32:44.512Z,20.30
2023-01-11T00:35:11.703Z,20.30
2023-01-11T00:37:39.524Z,20.30
2023-01-11T00:40:07.049Z,20.30
2023-01-11T00:42:52.563Z,20.30
2023-01-11T00:45:37.774Z,20.30
2023-01-11T00:48:06.047Z,20.30
2023-01-11T00:50:38.757Z,20.30
2023-01-11T00:53:06.408Z,20.20
2023-01-11T00:55:34.041Z,20.30
2023-01-11T00:58:01.367Z,20.20
2023-01-11T01:00:29.261Z,20.30
2023-01-11T01:02:56.233Z,20.20
2023-01-11T01:05:23.090Z,20.20
2023-01-11T01:07:50.003Z,20.20
2023-01-11T01:10:18.224Z,20.20
2023-01-11T01:13:04.235Z,20.10
2023-01-11T01:15:31.840Z,20.10
2023-01-11T01:17:58.702Z,20.10
2023-01-11T01:20:26.478Z,20.20
2023-01-11T01:22:53.394Z,20.20
2023-01-11T01:25:20.563Z,20.20
2023-01-11T01:27:47.417Z,20.10
2023-01-11T01:30:14.414Z,20.10
2023-01-11T01:32:41.397Z,20.20
2023-01-11T01:35:08.645Z,20.20
2023-01-11T01:37:35.559Z,20.20
2023-01-11T01:40:02.759Z,20.20
2023-01-11T01:42:30.466Z,20.20
2023-01-11T01:45:17.582Z,20.20
2023-01-11T01:48:06.727Z,20.20
2023-01-11T01:50:57.048Z,20.20
2023-01-11T01:53:29.671Z,20.20
2023-01-11T01:56:00.240Z,20.20
2023-01-11T01:58:39.645Z,20.20
2023-01-11T02:01:25.517Z,20.20
2023-01-11T02:03:52.990Z,20.20
2023-01-11T02:06:22.463Z,20.20
2023-01-11T02:08:56.758Z,20.20
2023-01-11T02:11:30.551Z,20.10
2023-01-11T02:14:03.752Z,20.20
2023-01-11T02:16:30.543Z,20.10
2023-01-11T02:18:58.360Z,20.10
2023-01-11T02:21:36.415Z,20.10
2023-01-11T02:24:27.820Z,20.10
2023-01-11T02:27:16.236Z,20.10
2023-01-11T02:29:48.950Z,20.10
2023-01-11T02:32:18.500Z,20.20
2023-01-11T02:34:56.110Z,20.20
2023-01-11T02:37:37.360Z,20.20
2023-01-11T02:40:26.292Z,20.30
2023-01-11T02:43:24.258Z,20.40
2023-01-11T02:46:35.040Z,20.40
2023-01-11T02:49:10.130Z,20.50
2023-01-11T02:51:50.423Z,20.50
2023-01-11T02:54:21.422Z,20.60
2023-01-11T02:56:51.646Z,20.60
2023-01-11T02:59:22.672Z,20.60
2023-01-11T03:01:53.202Z,20.60
2023-01-11T03:04:24.871Z,20.50
2023-01-11T03:07:00.747Z,20.50
2023-01-11T03:09:40.793Z,20.60
2023-01-11T03:12:37.211Z,20.60
2023-01-11T03:15:34.484Z,20.60
2023-01-11T03:18:11.063Z,20.70
2023-01-11T03:20:45.248Z,20.70
2023-01-11T03:23:33.714Z,20.70
2023-01-11T03:26:12.983Z,20.80
2023-01-11T03:28:59.846Z,20.80
2023-01-11T03:31:40.813Z,20.80
2023-01-11T03:34:28.712Z,20.90
2023-01-11T03:37:05.722Z,20.90
2023-01-11T03:39:57.793Z,20.90
2023-01-11T03:42:27.408Z,20.80
2023-01-11T03:44:56.619Z,20.80
2023-01-11T03:47:26.481Z,20.80
2023-01-11T03:50:06.210Z,20.80
2023-01-11T03:52:37.449Z,20.80
2023-01-11T03:55:08.438Z,20.80
2023-01-11T03:57:42.239Z,20.80
2023-01-11T04:00:10.019Z,20.90
2023-01-11T04:02:40.384Z,20.90
2023-01-11T04:05:09.803Z,20.90
2023-01-11T04:07:36.591Z,21.00
2023-01-11T04:10:04.133Z,21.00
2023-01-11T04:12:31.166Z,21.00
2023-01-11T04:14:58.088Z,21.00
2023-01-11T04:17:24.861Z,21.00
2023-01-11T04:19:51.991Z,21.00
2023-01-11T04:22:18.749Z,21.00
2023-01-11T04:24:45.542Z,20.90
2023-01-11T04:27:12.370Z,20.90
2023-01-11T04:29:39.673Z,20.80
2023-01-11T04:32:06.476Z,20.80
2023-01-11T04:34:33.287Z,20.80
2023-01-11T04:37:00.083Z,20.80
2023-01-11T04:39:26.881Z,20.70
2023-01-11T04:42:12.090Z,20.80
2023-01-11T04:44:38.890Z,20.80
2023-01-11T04:47:05.766Z,20.80
2023-01-11T04:49:32.521Z,20.80
2023-01-11T04:51:59.284Z,20.90
2023-01-11T04:54:26.070Z,20.90
2023-01-11T04:56:52.859Z,20.90
2023-01-11T04:59:19.609Z,20.90
2023-01-11T05:01:46.403Z,20.90
2023-01-11T05:04:13.688Z,21.00
2023-01-11T05:06:40.660Z,20.90
2023-01-11T05:09:17.741Z,20.90
2023-01-11T05:11:45.306Z,20.90
2023-01-11T05:14:12.332Z,20.80
2023-01-11T05:16:39.226Z,20.70
2023-01-11T05:19:06.416Z,20.70
2023-01-11T05:21:35.649Z,20.70
2023-01-11T05:24:04.955Z,20.60
2023-01-11T05:26:34.809Z,20.60
2023-01-11T05:29:05.283Z,20.60
2023-01-11T05:31:33.626Z,20.60
2023-01-11T05:34:01.097Z,20.70
2023-01-11T05:36:29.048Z,20.70
2023-01-11T05:38:57.074Z,20.70
2023-01-11T05:41:25.944Z,20.70
2023-01-11T05:44:12.550Z,20.70
2023-01-11T05:46:41.720Z,20.60
2023-01-11T05:49:09.743Z,20.60
2023-01-11T05:51:38.245Z,20.60
2023-01-11T05:54:07.176Z,20.50
2023-01-11T05:56:34.059Z,20.50
2023-01-11T05:59:00.930Z,20.50
2023-01-11T06:01:27.791Z,20.50
2023-01-11T06:03:54.666Z,20.50
2023-01-11T06:06:22.571Z,20.50
2023-01-11T06:08:49.387Z,20.50
2023-01-11T06:11:16.255Z,20.60
2023-01-11T06:13:43.173Z,20.60
2023-01-11T06:16:12.884Z,20.60
2023-01-11T06:18:41.861Z,20.70
2023-01-11T06:21:10.205Z,20.70
2023-01-11T06:23:39.192Z,20.70
2023-01-11T06:26:09.036Z,20.70
2023-01-11T06:28:37.441Z,20.80
2023-01-11T06:31:05.191Z,20.80
2023-01-11T06:33:32.393Z,20.80
2023-01-11T06:36:02.213Z,20.70
2023-01-11T06:38:29.392Z,20.70
2023-01-11T06:40:58.911Z,20.70
2023-01-11T06:43:26.792Z,20.70
2023-01-11T06:45:53.811Z,20.70
2023-01-11T06:48:22.696Z,20.60
2023-01-11T06:50:51.568Z,20.60
2023-01-11T06:53:18.504Z,20.60
2023-01-11T06:55:45.403Z,20.60
2023-01-11T06:58:12.206Z,20.60
2023-01-11T07:00:39.102Z,20.60
2023-01-11T07:03:06.833Z,20.60
2023-01-11T07:05:35.295Z,20.60
2023-01-11T07:08:03.072Z,20.70
2023-01-11T07:10:29.956Z,20.70
2023-01-11T07:12:56.805Z,20.70
2023-01-11T07:15:23.649Z,20.70
2023-01-11T07:17:57.631Z,20.70
2023-01-11T07:20:25.222Z,20.60
2023-01-11T07:22:52.549Z,20.60
2023-01-11T07:25:19.387Z,20.60
2023-01-11T07:27:46.201Z,20.50
2023-01-11T07:30:13.463Z,20.50
2023-01-11T07:32:40.302Z,20.40
2023-01-11T07:35:07.598Z,20.40
2023-01-11T07:37:37.525Z,20.40
2023-01-11T07:40:04.940Z,20.50
2023-01-11T07:42:50.496Z,20.50
2023-01-11T07:45:17.527Z,20.50
2023-01-11T07:47:44.359Z,20.50
2023-01-11T07:50:11.277Z,20.50
2023-01-11T07:52:38.055Z,20.50
2023-01-11T07:55:05.255Z,20.50
2023-01-11T07:57:33.031Z,20.60
2023-01-11T07:59:59.812Z,20.60
2023-01-11T08:02:26.753Z,20.60
2023-01-11T08:04:53.602Z,20.50
2023-01-11T08:07:20.465Z,20.50
2023-01-11T08:09:47.229Z,20.40
2023-01-11T08:12:32.781Z,20.40
2023-01-11T08:14:59.557Z,20.30
2023-01-11T08:17:26.545Z,20.30
2023-01-11T08:19:55.744Z,20.30
2023-01-11T08:22:22.638Z,20.30
2023-01-11T08:24:49.588Z,20.30
2023-01-11T08:27:16.496Z,20.30
2023-01-11T08:29:44.297Z,20.40
2023-01-11T08:32:13.137Z,20.40
2023-01-11T08:34:40.395Z,20.40
2023-01-11T08:37:07.218Z,20.50
2023-01-11T08:39:34.064Z,20.50
2023-01-11T08:42:02.974Z,20.60
2023-01-11T08:44:34.155Z,20.60
2023-01-11T08:47:03.102Z,20.60
2023-01-11T08:49:30.600Z,20.60
2023-01-11T08:52:04.506Z,20.60
2023-01-11T08:54:31.401Z,20.60
2023-01-11T08:56:58.200Z,20.50
2023-01-11T08:59:25.099Z,20.50
2023-01-11T09:01:51.960Z,20.50
2023-01-11T09:04:25.176Z,20.40
2023-01-11T09:06:53.304Z,20.40
2023-01-11T09:09:20.368Z,20.40
2023-01-11T09:12:00.903Z,20.50
2023-01-11T09:14:29.029Z,20.40
2023-01-11T09:16:56.443Z,20.50
2023-01-11T09:19:23.697Z,20.50
2023-01-11T09:21:51.686Z,20.50
2023-01-11T09:24:19.624Z,20.50
2023-01-11T09:26:46.491Z,20.60
2023-01-11T09:29:13.915Z,20.60
2023-01-11T09:31:41.192Z,20.60
2023-01-11T09:34:10.916Z,20.60
2023-01-11T09:36:40.005Z,20.60
2023-01-11T09:39:08.523Z,20.70
2023-01-11T09:41:56.966Z,20.60
2023-01-11T09:44:29.787Z,20.60
2023-01-11T09:47:31.330Z,20.60
2023-01-11T09:50:02.442Z,20.70
2023-01-11T09:52:41.130Z,20.70
2023-01-11T09:55:31.209Z,20.70
2023-01-11T09:58:09.886Z,20.80
2023-01-11T10:01:04.500Z,20.80
2023-01-11T10:04:16.273Z,20.80
2023-01-11T10:07:24.892Z,20.80
2023-01-11T10:18:40.560Z,21.10
2023-01-11T10:19:39.885Z,21.10
2023-01-11T10:22:39.657Z,21.20
2023-01-11T10:25:21.719Z,21.20
2023-01-11T10:28:01.579Z,21.30
2023-01-11T10:31:11.086Z,21.30
2023-01-11T10:34:02.338Z,21.30
2023-01-11T10:36:41.211Z,21.30
2023-01-11T10:39:54.670Z,21.30
2023-01-11T10:42:26.328Z,21.30
2023-01-11T10:45:25.333Z,21.40
2023-01-11T10:47:59.461Z,21.40
2023-01-11T10:50:46.804Z,21.40
2023-01-11T10:53:23.519Z,21.40
2023-01-11T10:56:04.939Z,21.40
2023-01-11T10:58:55.686Z,21.50
2023-01-11T11:01:49.189Z,21.50
2023-01-11T11:04:51.359Z,21.50
2023-01-11T11:07:32.848Z,21.50
2023-01-11T11:10:15.954Z,21.50
2023-01-11T11:12:54.490Z,21.60
2023-01-11T11:15:24.027Z,21.60
2023-01-11T11:17:52.679Z,21.60
2023-01-11T11:20:25.206Z,21.70
2023-01-11T11:22:53.659Z,21.70
2023-01-11T11:25:27.488Z,21.70
2023-01-11T11:28:24.154Z,21.80
2023-01-11T11:30:57.357Z,21.80
2023-01-11T11:33:38.718Z,21.80
2023-01-11T11:36:08.849Z,21.90
2023-01-11T11:38:41.588Z,21.90
2023-01-11T11:41:13.798Z,21.90
2023-01-11T11:43:42.454Z,22.00
2023-01-11T11:46:19.492Z,22.00
2023-01-11T11:49:17.909Z,22.00
2023-01-11T11:51:47.032Z,22.00
2023-01-11T11:54:30.575Z,22.10
2023-01-11T11:57:00.513Z,22.10
2023-01-11T11:59:30.366Z,22.10
2023-01-11T12:02:03.614Z,22.10
2023-01-11T12:04:48.865Z,22.00
2023-01-11T12:07:21.472Z,22.00
2023-01-11T12:09:57.183Z,21.90
2023-01-11T12:12:26.870Z,21.80
2023-01-11T12:15:14.965Z,21.70
2023-01-11T12:17:42.365Z,21.60
2023-01-11T12:20:28.565Z,21.60
2023-01-11T12:23:21.451Z,21.60
2023-01-11T12:26:26.272Z,21.60
2023-01-11T12:29:12.461Z,21.60
2023-01-11T12:32:00.435Z,21.50
2023-01-11T12:34:48.880Z,21.50
2023-01-11T12:37:20.205Z,21.50
2023-01-11T12:39:52.699Z,21.50
2023-01-11T12:42:34.689Z,21.40
2023-01-11T12:45:12.716Z,21.40
2023-01-11T12:47:57.626Z,21.30
2023-01-11T12:50:30.562Z,21.30
2023-01-11T12:53:25.923Z,21.20
2023-01-11T12:56:01.801Z,21.20
2023-01-11T12:58:35.142Z,21.10
2023-01-11T13:01:05.225Z,21.00
2023-01-11T13:04:00.175Z,21.00
2023-01-11T13:06:50.134Z,21.00
2023-01-11T13:09:51.002Z,21.00
2023-01-11T13:12:49.701Z,21.10
2023-01-11T13:15:34.279Z,21.10
2023-01-11T13:18:09.983Z,21.20
2023-01-11T13:21:02.530Z,21.20
2023-01-11T13:23:39.525Z,21.30
2023-01-11T13:26:23.706Z,21.40
2023-01-11T13:29:14.571Z,21.50
2023-01-11T13:31:43.684Z,21.50
2023-01-11T13:34:25.284Z,21.60
2023-01-11T13:36:59.344Z,21.60
2023-01-11T13:39:37.498Z,21.60
2023-01-11T13:42:12.777Z,21.70
2023-01-11T13:44:46.501Z,21.80
2023-01-11T13:47:17.066Z,21.80
2023-01-11T13:49:56.661Z,21.80
2023-01-11T13:53:02.648Z,21.90
2023-01-11T13:56:23.359Z,21.90
2023-01-11T13:59:10.333Z,22.00
2023-01-11T14:01:54.003Z,22.00
2023-01-11T14:04:48.781Z,22.10
2023-01-11T14:07:24.506Z,22.10
2023-01-11T14:10:27.683Z,22.10
2023-01-11T14:13:08.128Z,22.10
2023-01-11T14:15:54.919Z,22.10
2023-01-11T14:19:00.648Z,22.10
2023-01-11T14:21:41.881Z,22.00
2023-01-11T14:24:11.133Z,22.00
2023-01-11T14:26:56.169Z,21.90
2023-01-11T14:30:05.101Z,21.90
2023-01-11T14:33:05.590Z,21.80
2023-01-11T14:36:00.679Z,21.70
2023-01-11T14:38:27.427Z,21.70
2023-01-11T14:41:26.809Z,21.60
2023-01-11T14:44:29.884Z,21.60
2023-01-11T14:47:27.168Z,21.60
2023-01-11T14:50:12.730Z,21.70
2023-01-11T14:52:41.825Z,21.70
2023-01-11T14:55:16.574Z,21.70
2023-01-11T14:57:55.248Z,21.70
2023-01-11T15:00:22.011Z,21.70
2023-01-11T15:03:13.054Z,21.70
2023-01-11T15:06:06.486Z,21.70
2023-01-11T15:08:45.374Z,21.80
2023-01-11T15:11:26.071Z,21.80
2023-01-11T15:13:57.711Z,21.80
2023-01-11T15:16:55.185Z,21.80
2023-01-11T15:19:29.792Z,21.80
2023-01-11T15:21:58.410Z,21.80
2023-01-11T15:24:36.667Z,21.80
2023-01-11T15:27:03.895Z,21.80
2023-01-11T15:29:40.324Z,21.80
2023-01-11T15:32:26.422Z,21.80
2023-01-11T15:34:53.617Z,21.70
2023-01-11T15:37:31.831Z,21.60
2023-01-11T15:40:05.849Z,21.60
2023-01-11T15:42:51.821Z,21.60
2023-01-11T15:46:03.159Z,21.50
2023-01-11T15:49:00.990Z,21.50
2023-01-11T15:51:49.497Z,21.60
2023-01-11T15:54:22.487Z,21.60
2023-01-11T15:56:57.424Z,21.60
2023-01-11T16:00:01.487Z,21.60
2023-01-11T16:02:40.968Z,21.60
2023-01-11T16:05:20.450Z,21.60
2023-01-11T16:08:20.984Z,21.70
2023-01-11T16:10:52.921Z,21.70
2023-01-11T16:13:23.992Z,21.70
2023-01-11T16:16:02.876Z,21.70
2023-01-11T16:18:37.008Z,21.70
2023-01-11T16:21:21.402Z,21.80
2023-01-11T16:23:49.306Z,21.80
2023-01-11T16:26:21.213Z,21.70
2023-01-11T16:28:58.555Z,21.70
2023-01-11T16:31:26.627Z,21.70
2023-01-11T16:33:53.656Z,21.60
2023-01-11T16:36:23.260Z,21.60
2023-01-11T16:39:04.074Z,21.50
2023-01-11T16:41:51.314Z,21.50
2023-01-11T16:44:44.778Z,21.40
2023-01-11T16:47:16.903Z,21.40
2023-01-11T16:49:48.812Z,21.40
2023-01-11T16:52:29.244Z,21.50
2023-01-11T16:54:58.185Z,21.50
2023-01-11T16:57:34.507Z,21.50
2023-01-11T17:00:05.414Z,21.50
2023-01-11T17:02:38.808Z,21.60
2023-01-11T17:05:32.113Z,21.60
2023-01-11T17:07:58.886Z,21.60
2023-01-11T17:10:29.169Z,21.60
2023-01-11T17:13:37.606Z,21.70
2023-01-11T17:16:10.080Z,21.70
2023-01-11T17:18:41.425Z,21.70
2023-01-11T17:21:24.497Z,21.80
2023-01-11T17:23:58.245Z,21.70
2023-01-11T17:26:29.118Z,21.80
2023-01-11T17:28:58.571Z,21.70
2023-01-11T17:31:31.965Z,21.80
2023-01-11T17:34:05.760Z,21.80
2023-01-11T17:36:33.189Z,21.80
2023-01-11T17:39:00.885Z,21.70
2023-01-11T17:41:47.502Z,21.70
2023-01-11T17:44:34.639Z,21.70
2023-01-11T17:47:03.512Z,21.70
2023-01-11T17:49:32.400Z,21.60
2023-01-11T17:52:08.938Z,21.70
2023-01-11T17:54:35.734Z,21.70
2023-01-11T17:57:02.617Z,21.70
2023-01-11T17:59:30.402Z,21.70
2023-01-11T18:02:00.157Z,21.70
2023-01-11T18:04:28.397Z,21.80
2023-01-11T18:07:05.365Z,21.80
2023-01-11T18:09:34.637Z,21.80
2023-01-11T18:12:06.145Z,21.90
2023-01-11T18:14:40.995Z,21.90
2023-01-11T18:17:35.050Z,21.90
2023-01-11T18:20:23.543Z,21.90
2023-01-11T18:22:53.403Z,21.90
2023-01-11T18:25:28.526Z,22.00
2023-01-11T18:28:21.173Z,21.90
2023-01-11T18:30:58.259Z,22.00
2023-01-11T18:33:29.210Z,21.90
2023-01-11T18:36:04.015Z,21.90
2023-01-11T18:38:33.642Z,21.80
2023-01-11T18:41:25.826Z,21.80
2023-01-11T18:43:53.503Z,21.80
2023-01-11T18:46:20.331Z,21.70
2023-01-11T18:48:47.217Z,21.70
2023-01-11T18:51:22.588Z,21.70
2023-01-11T18:53:49.375Z,21.80
2023-01-11T18:56:16.403Z,21.80
2023-01-11T18:58:43.301Z,21.80
2023-01-11T19:01:10.451Z,21.90
2023-01-11T19:03:39.233Z,21.90
2023-01-11T19:06:06.748Z,21.90
2023-01-11T19:08:33.856Z,21.90
2023-01-11T19:11:02.967Z,21.90
2023-01-11T19:13:30.057Z,22.00
2023-01-11T19:15:57.136Z,22.00
2023-01-11T19:18:23.958Z,22.00
2023-01-11T19:20:50.735Z,22.00
2023-01-11T19:23:17.497Z,22.10
2023-01-11T19:25:44.362Z,22.10
2023-01-11T19:28:11.176Z,22.10
2023-01-11T19:30:39.143Z,22.10
2023-01-11T19:33:05.963Z,22.10
2023-01-11T19:35:32.753Z,22.10
2023-01-11T19:37:59.575Z,22.10
2023-01-11T19:40:26.419Z,22.10
2023-01-11T19:42:53.345Z,22.00
2023-01-11T19:45:20.201Z,22.00
2023-01-11T19:47:47.328Z,22.00
2023-01-11T19:50:14.186Z,22.00
2023-01-11T19:52:41.113Z,21.90
2023-01-11T19:55:08.237Z,21.90
2023-01-11T19:57:35.252Z,21.90
2023-01-11T20:00:03.892Z,21.80
2023-01-11T20:02:31.868Z,21.70
2023-01-11T20:04:58.816Z,21.70
2023-01-11T20:07:25.645Z,21.60
2023-01-11T20:09:52.505Z,21.60
2023-01-11T20:12:19.550Z,21.60
2023-01-11T20:14:46.803Z,21.50
2023-01-11T20:17:19.087Z,21.50
2023-01-11T20:19:46.786Z,21.50
2023-01-11T20:22:13.638Z,21.40
2023-01-11T20:24:40.411Z,21.40
2023-01-11T20:27:07.229Z,21.40
2023-01-11T20:29:34.066Z,21.30
2023-01-11T20:32:18.939Z,21.30
2023-01-11T20:34:47.479Z,21.30
2023-01-11T20:37:15.112Z,21.20
2023-01-11T20:39:41.857Z,21.20
2023-01-11T20:42:09.366Z,21.20
2023-01-11T20:44:36.129Z,21.10
2023-01-11T20:47:02.948Z,21.10
2023-01-11T20:49:30.188Z,21.10
2023-01-11T20:51:58.563Z,21.10
2023-01-11T20:54:25.595Z,21.10
2023-01-11T20:56:52.799Z,21.00
2023-01-11T20:59:20.295Z,21.00
2023-01-11T21:01:48.297Z,21.00
2023-01-11T21:04:16.755Z,21.00
2023-01-11T21:06:46.067Z,21.00
2023-01-11T21:09:17.497Z,21.00
2023-01-11T21:11:44.819Z,21.00
2023-01-11T21:14:14.349Z,20.90
2023-01-11T21:16:42.756Z,21.00
2023-01-11T21:19:14.380Z,20.90
2023-01-11T21:21:41.669Z,20.90
2023-01-11T21:24:11.174Z,20.90
2023-01-11T21:26:38.217Z,20.90
2023-01-11T21:29:05.524Z,20.90
2023-01-11T21:31:34.203Z,20.80
2023-01-11T21:34:01.468Z,20.80
2023-01-11T21:36:30.818Z,20.80
2023-01-11T21:38:59.040Z,20.80
2023-01-11T21:41:46.699Z,20.80
2023-01-11T21:44:14.502Z,20.70
2023-01-11T21:46:41.587Z,20.70
2023-01-11T21:49:09.488Z,20.70
2023-01-11T21:51:38.682Z,20.70
2023-01-11T21:54:13.767Z,20.70
2023-01-11T21:56:41.897Z,20.70
2023-01-11T21:59:09.079Z,20.70
2023-01-11T22:01:36.230Z,20.70
2023-01-11T22:04:11.643Z,20.70
2023-01-11T22:06:40.803Z,20.70
2023-01-11T22:09:10.548Z,20.70
2023-01-11T22:11:37.478Z,20.70
2023-01-11T22:14:06.551Z,20.70
2023-01-11T22:16:34.389Z,20.70
2023-01-11T22:19:02.648Z,20.70
2023-01-11T22:21:29.582Z,20.70
2023-01-11T22:23:58.888Z,20.70
2023-01-11T22:26:26.583Z,20.70
2023-01-11T22:29:13.724Z,20.80
2023-01-11T22:31:51.289Z,20.80
2023-01-11T22:34:18.917Z,20.80
2023-01-11T22:36:46.131Z,20.80
2023-01-11T22:39:14.386Z,20.80
2023-01-11T22:41:41.671Z,20.80
2023-01-11T22:44:10.289Z,20.80
2023-01-11T22:46:37.047Z,20.80
2023-01-11T22:49:05.980Z,20.80
2023-01-11T22:51:33.105Z,20.80
2023-01-11T22:53:59.873Z,20.80
2023-01-11T22:56:29.137Z,20.80
2023-01-11T22:58:57.139Z,20.80
2023-01-11T23:01:31.435Z,20.80
2023-01-11T23:03:59.262Z,20.90
2023-01-11T23:06:28.761Z,20.80
2023-01-11T23:08:56.452Z,20.80
2023-01-11T23:11:45.158Z,20.80
2023-01-11T23:14:14.765Z,20.80
2023-01-11T23:16:42.025Z,20.90
2023-01-11T23:19:09.355Z,20.80
2023-01-11T23:21:38.997Z,20.80
2023-01-11T23:24:06.103Z,20.80
2023-01-11T23:26:33.002Z,20.90
2023-01-11T23:28:59.771Z,20.80
2023-01-11T23:31:29.256Z,20.80
2023-01-11T23:33:58.580Z,20.80
2023-01-11T23:36:30.803Z,20.80
2023-01-11T23:38:58.228Z,20.80
2023-01-11T23:41:44.299Z,20.70
2023-01-11T23:44:13.534Z,20.70
2023-01-11T23:47:00.124Z,20.70
2023-01-11T23:49:27.402Z,20.70
2023-01-11T23:51:55.397Z,20.60
2023-01-11T23:54:23.226Z,20.60
2023-01-11T23:56:49.993Z,20.70
2023-01-11T23:59:16.779Z,20.60
